Bookmark and Share
Track history (hours):
 

MSC Paola

Last reported at 2014-Apr-23 08:33 UTC. Time now 2014-Apr-23 09:25 UTC.
Position N 51°47' E 003°15'.

Length 243 m; draft 9.8 m.

Type: Ship (hazmat cat A). MMSI: 248931000.

NotesDate/timePositionNaut miles runAvg speedWind from/ knotsBaromVisibWave heightAir tempDewpointWater temp
2014-Apr-23 08:33N 51°47' E 003°15'1616.3
2014-Apr-23 07:33N 51°32' E 003°07'8 8.1
2014-Apr-23 06:33N 51°24' E 003°13'1413.8
2014-Apr-23 05:33N 51°26' E 003°35'9 9.3
2014-Apr-23 04:34N 51°21' E 003°48'9 9.4
2014-Apr-23 03:33N 51°23' E 004°02'9 9.2
2014-Apr-23 02:33N 51°21' E 004°17'0 0.4
2014-Apr-23 01:34N 51°21' E 004°17'2 2.4
2014-Apr-23 00:33N 51°20' E 004°21'0 0.0
2014-Apr-22 23:33N 51°20' E 004°21'0 0.0
2014-Apr-22 22:33N 51°20' E 004°21'0 0.0
2014-Apr-22 21:33N 51°20' E 004°21'0 0.0
2014-Apr-22 20:30N 51°20' E 004°21'0 0.0
2014-Apr-22 19:33N 51°20' E 004°21'0 0.0
2014-Apr-22 18:33N 51°20' E 004°21'0 0.0
2014-Apr-22 17:33N 51°20' E 004°21'0 0.0
2014-Apr-22 16:33N 51°20' E 004°21'0 0.0
2014-Apr-22 15:30N 51°20' E 004°21'0 0.0
2014-Apr-22 14:33N 51°20' E 004°21'0 0.0
2014-Apr-22 13:33N 51°20' E 004°21'0 0.0
2014-Apr-22 12:33N 51°20' E 004°21'0 0.0
2014-Apr-22 11:24N 51°20' E 004°21'0 0.0
2014-Apr-22 10:24N 51°20' E 004°21'0 0.0
2014-Apr-22 09:33N 51°20' E 004°21'0 0.0
2014-Apr-22 08:33N 51°20' E 004°21'0 0.0
2014-Apr-22 07:33N 51°20' E 004°21'0 0.0
2014-Apr-22 06:33N 51°20' E 004°21'0 0.0
2014-Apr-22 05:33N 51°20' E 004°21'0 0.0
2014-Apr-22 04:27N 51°20' E 004°21'0 0.0
2014-Apr-22 03:33N 51°20' E 004°21'0 0.0
2014-Apr-22 02:33N 51°20' E 004°21'0 0.0
2014-Apr-22 01:32N 51°20' E 004°21'0 0.0
2014-Apr-22 00:33N 51°20' E 004°21'0 0.0
2014-Apr-21 23:32N 51°20' E 004°21'0 0.0
2014-Apr-21 22:32N 51°20' E 004°21'0 0.0
2014-Apr-21 21:32N 51°20' E 004°21'0 0.0
2014-Apr-21 20:32N 51°20' E 004°21'0 0.0
2014-Apr-21 19:26N 51°20' E 004°21'0 0.0
2014-Apr-21 18:32N 51°20' E 004°21'0 0.1
2014-Apr-21 17:33N 51°20' E 004°20'2 2.3
2014-Apr-21 16:34N 51°21' E 004°17'0 0.0
2014-Apr-21 15:33N 51°21' E 004°17'5 5.0
2014-Apr-21 14:34N 51°23' E 004°10'8 8.4
2014-Apr-21 13:33N 51°23' E 003°57'9 9.4
2014-Apr-21 12:33N 51°25' E 003°42'1212.3
2014-Apr-21 11:33N 51°24' E 003°22'1414.4
2014-Apr-21 10:33N 51°25' E 002°59'2016.4
2014-Apr-21 09:19N 51°44' E 003°12'4 5.6
2014-Apr-21 08:33N 51°48' E 003°11'3 2.5
2014-Apr-21 07:29N 51°50' E 003°14'3214.7
2014-Apr-21 05:20N 52°19' E 003°31'1917.6
2014-Apr-21 04:16N 52°34' E 003°50'1317.9
2014-Apr-21 03:32N 52°47' E 003°55'1717.9
2014-Apr-21 02:33N 53°02' E 004°09'1919.2
2014-Apr-21 01:33N 53°17' E 004°28'2019.9
2014-Apr-21 00:33N 53°36' E 004°40'1918.9
2014-Apr-20 23:33N 53°54' E 004°49'5819.2
2014-Apr-20 20:33N 54°46' E 005°31'2019.8
2014-Apr-20 19:33N 55°03' E 005°49'17719.7
2014-Apr-20 10:33N 57°29' E 008°50'4020.2
2014-Apr-20 08:33N 57°42' E 010°01'2019.6
2014-Apr-20 07:33N 57°49' E 010°36'1818.3
2014-Apr-20 06:33N 57°39' E 011°06'2020.2
2014-Apr-20 05:33N 57°24' E 011°31'2120.6
2014-Apr-20 04:33N 57°05' E 011°43'2020.1
2014-Apr-20 03:33N 56°46' E 011°55'2020.1
2014-Apr-20 02:33N 56°28' E 011°36'2619.8
2014-Apr-20 01:14N 56°06' E 011°10'1419.8
2014-Apr-20 00:32N 55°55' E 010°57'7417.6
2014-Apr-19 20:21N 54°41' E 010°56'1519.2
2014-Apr-19 19:33N 54°34' E 011°20'2020.5
2014-Apr-19 18:33N 54°27' E 011°52'1717.1
2014-Apr-19 17:33N 54°36' E 012°17'2020.0
2014-Apr-19 16:33N 54°47' E 012°46'2020.2
2014-Apr-19 15:33N 54°46' E 013°21'2019.9
2014-Apr-19 14:33N 54°43' E 013°55'2020.1
2014-Apr-19 13:33N 54°38' E 014°29'4320.4
2014-Apr-19 11:27N 54°44' E 015°43'8420.2
2014-Apr-19 07:18N 54°58' E 018°06'1518.5
2014-Apr-19 06:30N 54°58' E 018°32'1415.4
2014-Apr-19 05:33N 54°51' E 018°53'1515.0
2014-Apr-19 04:34N 54°36' E 018°54'1212.5
2014-Apr-19 03:34N 54°32' E 018°34'2 1.6
2014-Apr-19 02:33N 54°33' E 018°31'0 0.0
2014-Apr-19 01:33N 54°33' E 018°31'0 0.0
2014-Apr-19 00:33N 54°33' E 018°31'0 0.0
2014-Apr-18 23:33N 54°33' E 018°31'0 0.0
2014-Apr-18 22:33N 54°33' E 018°31'0 0.0
2014-Apr-18 21:33N 54°33' E 018°31'0 0.0
2014-Apr-18 20:33N 54°33' E 018°31'0 0.0
2014-Apr-18 19:33N 54°33' E 018°31'0 0.0
2014-Apr-18 18:33N 54°33' E 018°31'0 0.0
2014-Apr-18 17:33N 54°33' E 018°31'0 0.0
2014-Apr-18 16:33N 54°33' E 018°31'0 0.0
2014-Apr-18 15:33N 54°33' E 018°31'0 0.0
2014-Apr-18 14:33N 54°33' E 018°31'0 0.0
2014-Apr-18 13:33N 54°33' E 018°31'0 0.0
2014-Apr-18 12:33N 54°33' E 018°31'0 0.0
2014-Apr-18 11:33N 54°33' E 018°31'0 0.0
2014-Apr-18 10:33N 54°33' E 018°31'0 0.0
2014-Apr-18 09:33N 54°33' E 018°31'0 0.0
2014-Apr-18 08:32N 54°33' E 018°31'0 0.0
2014-Apr-18 07:32N 54°33' E 018°31'0 0.0
2014-Apr-18 06:33N 54°33' E 018°31'0 0.0
2014-Apr-18 05:32N 54°33' E 018°31'0 0.0
2014-Apr-18 04:32N 54°33' E 018°31'0 0.0
2014-Apr-18 03:32N 54°33' E 018°31'0 0.0
2014-Apr-18 02:32N 54°33' E 018°31'0 0.0
2014-Apr-18 01:32N 54°33' E 018°31'0 0.0
2014-Apr-18 00:32N 54°33' E 018°31'0 0.0
2014-Apr-17 23:32N 54°33' E 018°31'0 0.0
2014-Apr-17 22:32N 54°33' E 018°31'0 0.0
2014-Apr-17 21:32N 54°33' E 018°31'0 0.0
2014-Apr-17 20:32N 54°33' E 018°31'0 0.0
2014-Apr-17 19:32N 54°33' E 018°31'0 0.0
2014-Apr-17 18:32N 54°33' E 018°31'0 0.0
2014-Apr-17 17:32N 54°33' E 018°31'0 0.0
2014-Apr-17 16:32N 54°33' E 018°31'0 0.0
2014-Apr-17 15:32N 54°33' E 018°31'0 0.0
2014-Apr-17 14:32N 54°33' E 018°31'0 0.0
2014-Apr-17 13:32N 54°33' E 018°31'0 0.0
2014-Apr-17 12:32N 54°33' E 018°31'0 0.0
2014-Apr-17 11:32N 54°33' E 018°31'0 0.0
2014-Apr-17 10:32N 54°33' E 018°31'0 0.0
2014-Apr-17 09:32N 54°33' E 018°31'0 0.0
2014-Apr-17 08:32N 54°33' E 018°31'0 0.0
2014-Apr-17 07:32N 54°33' E 018°31'0 0.0
2014-Apr-17 06:32N 54°33' E 018°31'0 0.0
2014-Apr-17 05:32N 54°33' E 018°31'0 0.0
2014-Apr-17 04:32N 54°33' E 018°31'3 3.0
2014-Apr-17 03:33N 54°32' E 018°36'5 4.8
2014-Apr-17 02:34N 54°32' E 018°44'8 8.3
2014-Apr-17 01:33N 54°38' E 018°54'1515.5
2014-Apr-17 00:34N 54°54' E 018°50'1717.1
2014-Apr-16 23:33N 54°58' E 018°21'1717.4
2014-Apr-16 22:34N 54°56' E 017°51'1918.6
2014-Apr-16 21:33N 54°53' E 017°19'1918.8
2014-Apr-16 20:33N 54°48' E 016°47'6018.8
2014-Apr-16 17:21N 54°39' E 015°04'1618.9
2014-Apr-16 16:30N 54°37' E 014°37'1718.4
2014-Apr-16 15:34N 54°39' E 014°07'1919.1
2014-Apr-16 14:34N 54°44' E 013°35'1919.1
2014-Apr-16 13:34N 54°45' E 013°02'1817.6
2014-Apr-16 12:34N 54°41' E 012°33'1818.3
2014-Apr-16 11:34N 54°27' E 012°13'1818.4
2014-Apr-16 10:34N 54°25' E 011°42'1919.4
2014-Apr-16 09:33N 54°35' E 011°13'6214.7
2014-Apr-16 05:21N 55°35' E 010°49'1618.6
2014-Apr-16 04:31N 55°51' E 010°50'1819.2
2014-Apr-16 03:34N 56°06' E 011°08'1919.3
2014-Apr-16 02:33N 56°22' E 011°28'1918.9
2014-Apr-16 01:33N 56°38' E 011°45'1717.3
2014-Apr-16 00:34N 56°56' E 011°45'1919.1
2014-Apr-15 23:33N 57°14' E 011°32'1918.8
2014-Apr-15 22:34N 57°30' E 011°16'1919.0
2014-Apr-15 21:34N 57°44' E 010°51'1817.5
2014-Apr-15 20:34N 57°45' E 010°19'1919.1
2014-Apr-15 19:34N 57°39' E 009°45'12615.8
2014-Apr-15 11:33N 56°12' E 006°58'1717.3
2014-Apr-15 10:34N 55°57' E 006°43'13416.7
2014-Apr-15 02:33N 53°58' E 004°56'1716.9
2014-Apr-15 01:34N 53°42' E 004°51'1616.4
2014-Apr-15 00:34N 53°26' E 004°42'1716.8
2014-Apr-14 23:34N 53°10' E 004°33'1716.7
2014-Apr-14 22:34N 52°56' E 004°19'1716.8
2014-Apr-14 21:34N 52°41' E 004°06'1716.9
2014-Apr-14 20:34N 52°30' E 003°45'1616.3
2014-Apr-14 19:34N 52°15' E 003°33'3215.7
2014-Apr-14 17:32N 51°46' E 003°15'1212.2
2014-Apr-14 16:33N 51°34' E 003°09'1010.2
2014-Apr-14 15:34N 51°24' E 003°08'1818.0
2014-Apr-14 14:34N 51°26' E 003°37'1312.9
2014-Apr-14 13:34N 51°24' E 003°57'13 6.5
2014-Apr-14 11:34N 51°21' E 004°17'0 0.4
2014-Apr-14 10:33N 51°21' E 004°18'2 1.8
2014-Apr-14 09:33N 51°20' E 004°20'0 0.0
2014-Apr-14 08:33N 51°20' E 004°20'0 0.0
2014-Apr-14 07:33N 51°20' E 004°20'0 0.0
2014-Apr-14 06:33N 51°20' E 004°20'0 0.0
2014-Apr-14 05:33N 51°20' E 004°20'0 0.0
2014-Apr-13 22:32N 51°20' E 004°20'0 0.0
2014-Apr-13 21:32N 51°20' E 004°20'0 0.0
2014-Apr-13 20:32N 51°20' E 004°20'0 0.0
2014-Apr-13 19:32N 51°20' E 004°20'0 0.0
2014-Apr-13 18:32N 51°20' E 004°20'0 0.0
2014-Apr-13 17:32N 51°20' E 004°20'0 0.0
2014-Apr-13 16:32N 51°20' E 004°20'0 0.0
2014-Apr-13 15:32N 51°20' E 004°20'0 0.0
2014-Apr-13 14:32N 51°20' E 004°20'0 0.0
2014-Apr-13 13:32N 51°20' E 004°20'0 0.0
2014-Apr-13 12:29N 51°20' E 004°20'0 0.0
2014-Apr-13 11:32N 51°20' E 004°20'0 0.0
2014-Apr-13 10:32N 51°20' E 004°20'0 0.0
2014-Apr-13 09:23N 51°20' E 004°20'  

Dump ship's entire track history

sailing weather and tide predictions

MSC Paola — 9HA2581 — position and weather